sensor_id;sensor_type;location;lat;lon;timestamp;P1;durP1;ratioP1;P2;durP2;ratioP2
47009;SDS011;59230;54.164;-3.124;2024-01-15T00:00:58;8.13;;;3.75;;
47009;SDS011;59230;54.164;-3.124;2024-01-15T00:03:25;12.35;;;4.30;;
47009;SDS011;59230;54.164;-3.124;2024-01-15T00:05:51;44.55;;;13.43;;
47009;SDS011;59230;54.164;-3.124;2024-01-15T00:08:19;6.75;;;1.92;;
47009;SDS011;59230;54.164;-3.124;2024-01-15T00:10:45;4.68;;;1.30;;
47009;SDS011;59230;54.164;-3.124;2024-01-15T00:13:11;4.28;;;1.08;;
47009;SDS011;59230;54.164;-3.124;2024-01-15T00:15:38;10.10;;;1.20;;
47009;SDS011;59230;54.164;-3.124;2024-01-15T00:18:04;2.05;;;1.05;;
47009;SDS011;59230;54.164;-3.124;2024-01-15T00:20:30;7.55;;;1.67;;
47009;SDS011;59230;54.164;-3.124;2024-01-15T00:22:55;9.93;;;1.48;;
47009;SDS011;59230;54.164;-3.124;2024-01-15T00:25:22;4.25;;;1.10;;
47009;SDS011;59230;54.164;-3.124;2024-01-15T00:27:47;6.57;;;1.15;;
47009;SDS011;59230;54.164;-3.124;2024-01-15T00:30:13;2.08;;;0.73;;
47009;SDS011;59230;54.164;-3.124;2024-01-15T00:32:39;6.47;;;1.02;;
47009;SDS011;59230;54.164;-3.124;2024-01-15T00:35:05;7.78;;;1.20;;
47009;SDS011;59230;54.164;-3.124;2024-01-15T00:37:35;3.33;;;0.95;;
47009;SDS011;59230;54.164;-3.124;2024-01-15T00:40:01;5.63;;;0.80;;
47009;SDS011;59230;54.164;-3.124;2024-01-15T00:42:26;2.72;;;0.80;;
47009;SDS011;59230;54.164;-3.124;2024-01-15T00:44:54;8.23;;;1.10;;
47009;SDS011;59230;54.164;-3.124;2024-01-15T00:47:19;1.20;;;0.70;;
47009;SDS011;59230;54.164;-3.124;2024-01-15T00:49:45;7.18;;;0.95;;
47009;SDS011;59230;54.164;-3.124;2024-01-15T00:52:10;3.90;;;1.00;;
47009;SDS011;59230;54.164;-3.124;2024-01-15T00:54:38;8.40;;;1.10;;
47009;SDS011;59230;54.164;-3.124;2024-01-15T00:57:06;5.25;;;1.10;;
47009;SDS011;59230;54.164;-3.124;2024-01-15T00:59:31;5.68;;;1.38;;
47009;SDS011;59230;54.164;-3.124;2024-01-15T01:01:57;7.63;;;1.20;;
47009;SDS011;59230;54.164;-3.124;2024-01-15T01:04:22;3.58;;;0.95;;
47009;SDS011;59230;54.164;-3.124;2024-01-15T01:06:49;5.30;;;1.30;;
47009;SDS011;59230;54.164;-3.124;2024-01-15T01:09:15;3.03;;;1.00;;
47009;SDS011;59230;54.164;-3.124;2024-01-15T01:11:42;3.83;;;1.00;;
47009;SDS011;59230;54.164;-3.124;2024-01-15T01:14:08;3.33;;;1.02;;
47009;SDS011;59230;54.164;-3.124;2024-01-15T01:16:36;2.45;;;1.00;;
47009;SDS011;59230;54.164;-3.124;2024-01-15T01:19:07;5.85;;;0.95;;
47009;SDS011;59230;54.164;-3.124;2024-01-15T01:21:34;7.18;;;1.75;;
47009;SDS011;59230;54.164;-3.124;2024-01-15T01:24:00;3.10;;;1.00;;
47009;SDS011;59230;54.164;-3.124;2024-01-15T01:26:25;5.88;;;1.00;;
47009;SDS011;59230;54.164;-3.124;2024-01-15T01:28:50;5.85;;;1.38;;
47009;SDS011;59230;54.164;-3.124;2024-01-15T01:31:17;5.47;;;1.05;;
47009;SDS011;59230;54.164;-3.124;2024-01-15T01:33:42;5.38;;;0.90;;
47009;SDS011;59230;54.164;-3.124;2024-01-15T01:36:09;5.53;;;1.20;;
47009;SDS011;59230;54.164;-3.124;2024-01-15T01:38:36;8.23;;;1.30;;
47009;SDS011;59230;54.164;-3.124;2024-01-15T01:41:04;6.88;;;1.17;;
47009;SDS011;59230;54.164;-3.124;2024-01-15T01:43:32;11.65;;;1.35;;
47009;SDS011;59230;54.164;-3.124;2024-01-15T01:45:59;5.53;;;1.05;;
47009;SDS011;59230;54.164;-3.124;2024-01-15T01:48:26;5.93;;;0.93;;
47009;SDS011;59230;54.164;-3.124;2024-01-15T01:50:57;2.58;;;0.73;;
47009;SDS011;59230;54.164;-3.124;2024-01-15T01:55:51;5.75;;;1.33;;
47009;SDS011;59230;54.164;-3.124;2024-01-15T01:58:20;5.93;;;1.00;;
47009;SDS011;59230;54.164;-3.124;2024-01-15T02:00:49;2.92;;;0.98;;
47009;SDS011;59230;54.164;-3.124;2024-01-15T02:03:14;9.35;;;1.30;;
47009;SDS011;59230;54.164;-3.124;2024-01-15T02:05:43;10.65;;;1.92;;
47009;SDS011;59230;54.164;-3.124;2024-01-15T02:08:09;4.75;;;1.00;;
47009;SDS011;59230;54.164;-3.124;2024-01-15T02:10:36;8.57;;;1.33;;
47009;SDS011;59230;54.164;-3.124;2024-01-15T02:13:01;7.70;;;1.13;;
47009;SDS011;59230;54.164;-3.124;2024-01-15T02:15:27;6.22;;;1.10;;
47009;SDS011;59230;54.164;-3.124;2024-01-15T02:17:56;7.45;;;1.10;;
47009;SDS011;59230;54.164;-3.124;2024-01-15T02:20:23;8.65;;;1.10;;
47009;SDS011;59230;54.164;-3.124;2024-01-15T02:22:54;5.50;;;0.90;;
47009;SDS011;59230;54.164;-3.124;2024-01-15T02:25:28;5.80;;;1.30;;
47009;SDS011;59230;54.164;-3.124;2024-01-15T02:27:54;8.30;;;1.10;;
47009;SDS011;59230;54.164;-3.124;2024-01-15T02:30:22;5.97;;;1.10;;
47009;SDS011;59230;54.164;-3.124;2024-01-15T02:32:50;7.50;;;1.08;;
47009;SDS011;59230;54.164;-3.124;2024-01-15T02:35:16;4.40;;;1.20;;
47009;SDS011;59230;54.164;-3.124;2024-01-15T02:37:42;4.47;;;1.30;;
47009;SDS011;59230;54.164;-3.124;2024-01-15T02:40:08;12.30;;;1.30;;
47009;SDS011;59230;54.164;-3.124;2024-01-15T02:42:34;9.90;;;1.08;;
47009;SDS011;59230;54.164;-3.124;2024-01-15T02:45:01;5.50;;;1.10;;
47009;SDS011;59230;54.164;-3.124;2024-01-15T02:47:31;6.05;;;1.15;;
47009;SDS011;59230;54.164;-3.124;2024-01-15T02:49:57;4.30;;;0.98;;
47009;SDS011;59230;54.164;-3.124;2024-01-15T02:52:24;5.18;;;0.90;;
47009;SDS011;59230;54.164;-3.124;2024-01-15T02:54:52;6.80;;;0.98;;
47009;SDS011;59230;54.164;-3.124;2024-01-15T02:57:19;5.30;;;1.60;;
47009;SDS011;59230;54.164;-3.124;2024-01-15T02:59:45;6.97;;;1.15;;
47009;SDS011;59230;54.164;-3.124;2024-01-15T03:02:12;4.00;;;1.10;;
47009;SDS011;59230;54.164;-3.124;2024-01-15T03:04:42;11.05;;;0.98;;
47009;SDS011;59230;54.164;-3.124;2024-01-15T03:07:08;8.73;;;1.17;;
47009;SDS011;59230;54.164;-3.124;2024-01-15T03:09:35;6.47;;;1.10;;
47009;SDS011;59230;54.164;-3.124;2024-01-15T03:12:00;6.20;;;0.95;;
47009;SDS011;59230;54.164;-3.124;2024-01-15T03:14:27;8.63;;;1.70;;
47009;SDS011;59230;54.164;-3.124;2024-01-15T03:16:57;10.57;;;1.20;;
47009;SDS011;59230;54.164;-3.124;2024-01-15T03:19:27;5.32;;;1.15;;
47009;SDS011;59230;54.164;-3.124;2024-01-15T03:21:53;3.75;;;0.80;;
47009;SDS011;59230;54.164;-3.124;2024-01-15T03:24:20;3.58;;;0.85;;
47009;SDS011;59230;54.164;-3.124;2024-01-15T03:26:46;6.20;;;0.73;;
47009;SDS011;59230;54.164;-3.124;2024-01-15T03:29:11;5.10;;;1.00;;
47009;SDS011;59230;54.164;-3.124;2024-01-15T03:31:38;3.90;;;0.90;;
47009;SDS011;59230;54.164;-3.124;2024-01-15T03:34:04;2.13;;;0.90;;
47009;SDS011;59230;54.164;-3.124;2024-01-15T03:36:32;6.20;;;1.00;;
47009;SDS011;59230;54.164;-3.124;2024-01-15T03:39:01;11.45;;;1.10;;
47009;SDS011;59230;54.164;-3.124;2024-01-15T03:41:26;6.32;;;1.20;;
47009;SDS011;59230;54.164;-3.124;2024-01-15T03:43:53;4.13;;;0.98;;
47009;SDS011;59230;54.164;-3.124;2024-01-15T03:46:20;3.25;;;0.90;;
47009;SDS011;59230;54.164;-3.124;2024-01-15T03:48:46;2.85;;;1.13;;
47009;SDS011;59230;54.164;-3.124;2024-01-15T03:51:15;4.00;;;1.13;;
47009;SDS011;59230;54.164;-3.124;2024-01-15T03:53:43;8.15;;;1.30;;
47009;SDS011;59230;54.164;-3.124;2024-01-15T03:56:12;3.88;;;1.00;;
47009;SDS011;59230;54.164;-3.124;2024-01-15T03:58:40;2.05;;;0.75;;
47009;SDS011;59230;54.164;-3.124;2024-01-15T04:01:11;5.80;;;1.08;;
47009;SDS011;59230;54.164;-3.124;2024-01-15T04:03:40;3.50;;;1.00;;
47009;SDS011;59230;54.164;-3.124;2024-01-15T04:06:08;9.55;;;1.02;;
47009;SDS011;59230;54.164;-3.124;2024-01-15T04:08:36;8.55;;;0.98;;
47009;SDS011;59230;54.164;-3.124;2024-01-15T04:11:05;3.25;;;1.08;;
47009;SDS011;59230;54.164;-3.124;2024-01-15T04:13:34;5.95;;;1.10;;
47009;SDS011;59230;54.164;-3.124;2024-01-15T04:16:02;6.22;;;1.20;;
47009;SDS011;59230;54.164;-3.124;2024-01-15T04:18:31;5.32;;;1.00;;
47009;SDS011;59230;54.164;-3.124;2024-01-15T04:20:58;3.58;;;0.93;;
47009;SDS011;59230;54.164;-3.124;2024-01-15T04:23:24;4.80;;;1.10;;
47009;SDS011;59230;54.164;-3.124;2024-01-15T04:25:50;6.63;;;0.93;;
47009;SDS011;59230;54.164;-3.124;2024-01-15T04:28:19;4.93;;;0.82;;
47009;SDS011;59230;54.164;-3.124;2024-01-15T04:30:44;5.22;;;1.20;;
47009;SDS011;59230;54.164;-3.124;2024-01-15T04:33:10;7.47;;;1.25;;
47009;SDS011;59230;54.164;-3.124;2024-01-15T04:35:37;7.03;;;1.60;;
47009;SDS011;59230;54.164;-3.124;2024-01-15T04:38:03;9.25;;;1.20;;
47009;SDS011;59230;54.164;-3.124;2024-01-15T04:40:30;2.50;;;0.85;;
47009;SDS011;59230;54.164;-3.124;2024-01-15T04:42:59;4.22;;;1.08;;
47009;SDS011;59230;54.164;-3.124;2024-01-15T04:45:27;5.07;;;0.70;;
47009;SDS011;59230;54.164;-3.124;2024-01-15T04:47:56;4.90;;;0.77;;
47009;SDS011;59230;54.164;-3.124;2024-01-15T04:50:22;2.90;;;0.90;;
47009;SDS011;59230;54.164;-3.124;2024-01-15T04:52:47;4.03;;;0.70;;
47009;SDS011;59230;54.164;-3.124;2024-01-15T04:55:16;2.63;;;0.70;;
47009;SDS011;59230;54.164;-3.124;2024-01-15T04:57:43;1.58;;;0.60;;
47009;SDS011;59230;54.164;-3.124;2024-01-15T05:00:10;3.42;;;0.70;;
47009;SDS011;59230;54.164;-3.124;2024-01-15T05:02:40;4.15;;;0.80;;
47009;SDS011;59230;54.164;-3.124;2024-01-15T05:05:09;3.78;;;0.80;;
47009;SDS011;59230;54.164;-3.124;2024-01-15T05:07:35;1.25;;;0.57;;
47009;SDS011;59230;54.164;-3.124;2024-01-15T05:10:03;1.58;;;0.70;;
47009;SDS011;59230;54.164;-3.124;2024-01-15T05:12:30;1.27;;;0.60;;
47009;SDS011;59230;54.164;-3.124;2024-01-15T05:14:56;2.15;;;0.70;;
47009;SDS011;59230;54.164;-3.124;2024-01-15T05:17:25;2.55;;;0.73;;
47009;SDS011;59230;54.164;-3.124;2024-01-15T05:19:51;4.93;;;0.70;;
47009;SDS011;59230;54.164;-3.124;2024-01-15T05:22:16;1.85;;;0.80;;
47009;SDS011;59230;54.164;-3.124;2024-01-15T05:24:42;2.53;;;0.73;;
47009;SDS011;59230;54.164;-3.124;2024-01-15T05:27:10;2.40;;;0.70;;
47009;SDS011;59230;54.164;-3.124;2024-01-15T05:29:37;2.95;;;0.63;;
47009;SDS011;59230;54.164;-3.124;2024-01-15T05:32:05;4.95;;;0.90;;
47009;SDS011;59230;54.164;-3.124;2024-01-15T05:34:30;3.22;;;0.70;;
47009;SDS011;59230;54.164;-3.124;2024-01-15T05:37:00;2.47;;;0.63;;
47009;SDS011;59230;54.164;-3.124;2024-01-15T05:39:27;3.15;;;0.65;;
47009;SDS011;59230;54.164;-3.124;2024-01-15T05:41:53;5.57;;;0.95;;
47009;SDS011;59230;54.164;-3.124;2024-01-15T05:44:19;2.08;;;0.68;;
47009;SDS011;59230;54.164;-3.124;2024-01-15T05:46:45;4.90;;;0.80;;
47009;SDS011;59230;54.164;-3.124;2024-01-15T05:49:10;1.83;;;0.70;;
47009;SDS011;59230;54.164;-3.124;2024-01-15T05:51:37;4.95;;;1.00;;
47009;SDS011;59230;54.164;-3.124;2024-01-15T05:54:02;6.13;;;0.82;;
47009;SDS011;59230;54.164;-3.124;2024-01-15T05:56:29;5.43;;;0.90;;
47009;SDS011;59230;54.164;-3.124;2024-01-15T05:58:55;3.45;;;1.13;;
47009;SDS011;59230;54.164;-3.124;2024-01-15T06:01:20;4.03;;;0.77;;
47009;SDS011;59230;54.164;-3.124;2024-01-15T06:03:46;3.42;;;0.60;;
47009;SDS011;59230;54.164;-3.124;2024-01-15T06:06:11;6.95;;;1.17;;
47009;SDS011;59230;54.164;-3.124;2024-01-15T06:08:39;5.68;;;0.70;;
47009;SDS011;59230;54.164;-3.124;2024-01-15T06:11:06;5.72;;;0.80;;
47009;SDS011;59230;54.164;-3.124;2024-01-15T06:13:34;4.60;;;1.02;;
47009;SDS011;59230;54.164;-3.124;2024-01-15T06:16:00;2.67;;;0.98;;
47009;SDS011;59230;54.164;-3.124;2024-01-15T06:18:26;4.18;;;0.90;;
47009;SDS011;59230;54.164;-3.124;2024-01-15T06:20:55;1.60;;;0.65;;
47009;SDS011;59230;54.164;-3.124;2024-01-15T06:23:20;2.78;;;0.90;;
47009;SDS011;59230;54.164;-3.124;2024-01-15T06:25:46;4.32;;;1.00;;
47009;SDS011;59230;54.164;-3.124;2024-01-15T06:28:11;3.42;;;1.00;;
47009;SDS011;59230;54.164;-3.124;2024-01-15T06:30:39;4.05;;;1.45;;
47009;SDS011;59230;54.164;-3.124;2024-01-15T06:33:05;2.47;;;0.88;;
47009;SDS011;59230;54.164;-3.124;2024-01-15T06:35:32;3.33;;;0.90;;
47009;SDS011;59230;54.164;-3.124;2024-01-15T06:38:01;4.72;;;0.93;;
47009;SDS011;59230;54.164;-3.124;2024-01-15T06:40:26;5.80;;;1.23;;
47009;SDS011;59230;54.164;-3.124;2024-01-15T06:42:53;2.42;;;0.70;;
47009;SDS011;59230;54.164;-3.124;2024-01-15T06:45:18;3.70;;;0.95;;
47009;SDS011;59230;54.164;-3.124;2024-01-15T06:47:44;4.90;;;1.20;;
47009;SDS011;59230;54.164;-3.124;2024-01-15T06:50:12;3.88;;;1.20;;
47009;SDS011;59230;54.164;-3.124;2024-01-15T06:52:40;5.90;;;1.20;;
47009;SDS011;59230;54.164;-3.124;2024-01-15T06:55:05;4.30;;;1.30;;
47009;SDS011;59230;54.164;-3.124;2024-01-15T06:57:34;8.18;;;1.45;;
47009;SDS011;59230;54.164;-3.124;2024-01-15T07:00:01;3.17;;;0.93;;
47009;SDS011;59230;54.164;-3.124;2024-01-15T07:02:30;9.40;;;3.35;;
47009;SDS011;59230;54.164;-3.124;2024-01-15T07:04:56;4.05;;;1.40;;
47009;SDS011;59230;54.164;-3.124;2024-01-15T07:07:24;2.65;;;1.02;;
47009;SDS011;59230;54.164;-3.124;2024-01-15T07:09:56;6.70;;;1.10;;
47009;SDS011;59230;54.164;-3.124;2024-01-15T07:12:23;3.63;;;0.98;;
47009;SDS011;59230;54.164;-3.124;2024-01-15T07:14:49;4.03;;;1.40;;
47009;SDS011;59230;54.164;-3.124;2024-01-15T07:17:16;5.47;;;1.23;;
47009;SDS011;59230;54.164;-3.124;2024-01-15T07:19:42;4.00;;;1.58;;
47009;SDS011;59230;54.164;-3.124;2024-01-15T07:22:07;4.32;;;1.00;;
47009;SDS011;59230;54.164;-3.124;2024-01-15T07:24:33;2.80;;;0.95;;
47009;SDS011;59230;54.164;-3.124;2024-01-15T07:27:01;4.30;;;0.90;;
47009;SDS011;59230;54.164;-3.124;2024-01-15T07:29:27;4.05;;;1.20;;
47009;SDS011;59230;54.164;-3.124;2024-01-15T07:31:55;6.55;;;1.25;;
47009;SDS011;59230;54.164;-3.124;2024-01-15T07:34:24;5.78;;;1.60;;
47009;SDS011;59230;54.164;-3.124;2024-01-15T07:36:51;3.30;;;1.08;;
47009;SDS011;59230;54.164;-3.124;2024-01-15T07:39:19;5.90;;;1.17;;
47009;SDS011;59230;54.164;-3.124;2024-01-15T07:41:45;5.20;;;1.08;;
47009;SDS011;59230;54.164;-3.124;2024-01-15T07:44:11;5.45;;;1.33;;
47009;SDS011;59230;54.164;-3.124;2024-01-15T07:46:37;2.53;;;1.00;;
47009;SDS011;59230;54.164;-3.124;2024-01-15T07:49:06;4.18;;;1.17;;
47009;SDS011;59230;54.164;-3.124;2024-01-15T07:51:32;3.47;;;1.15;;
47009;SDS011;59230;54.164;-3.124;2024-01-15T07:54:01;10.70;;;1.30;;
47009;SDS011;59230;54.164;-3.124;2024-01-15T07:56:27;3.88;;;1.20;;
47009;SDS011;59230;54.164;-3.124;2024-01-15T07:58:53;5.10;;;1.10;;
47009;SDS011;59230;54.164;-3.124;2024-01-15T08:01:19;4.05;;;1.30;;
47009;SDS011;59230;54.164;-3.124;2024-01-15T08:03:46;4.95;;;1.20;;
47009;SDS011;59230;54.164;-3.124;2024-01-15T08:06:11;6.70;;;1.30;;
47009;SDS011;59230;54.164;-3.124;2024-01-15T08:08:38;5.97;;;1.20;;
47009;SDS011;59230;54.164;-3.124;2024-01-15T08:11:06;4.10;;;1.00;;
47009;SDS011;59230;54.164;-3.124;2024-01-15T08:13:31;4.25;;;0.88;;
47009;SDS011;59230;54.164;-3.124;2024-01-15T08:15:57;6.63;;;1.10;;
47009;SDS011;59230;54.164;-3.124;2024-01-15T08:18:25;3.15;;;1.20;;
47009;SDS011;59230;54.164;-3.124;2024-01-15T08:20:50;4.65;;;1.10;;
47009;SDS011;59230;54.164;-3.124;2024-01-15T08:23:17;5.38;;;1.10;;
47009;SDS011;59230;54.164;-3.124;2024-01-15T08:25:45;4.13;;;0.98;;
47009;SDS011;59230;54.164;-3.124;2024-01-15T08:28:10;3.58;;;0.80;;
47009;SDS011;59230;54.164;-3.124;2024-01-15T08:30:37;8.80;;;1.50;;
47009;SDS011;59230;54.164;-3.124;2024-01-15T08:33:05;3.92;;;0.88;;
47009;SDS011;59230;54.164;-3.124;2024-01-15T08:35:32;2.20;;;0.80;;
47009;SDS011;59230;54.164;-3.124;2024-01-15T08:37:58;4.57;;;1.08;;
47009;SDS011;59230;54.164;-3.124;2024-01-15T08:40:24;5.75;;;0.95;;
47009;SDS011;59230;54.164;-3.124;2024-01-15T08:42:51;4.97;;;1.25;;
47009;SDS011;59230;54.164;-3.124;2024-01-15T08:45:17;9.02;;;1.33;;
47009;SDS011;59230;54.164;-3.124;2024-01-15T08:47:47;8.52;;;0.98;;
47009;SDS011;59230;54.164;-3.124;2024-01-15T08:50:13;5.95;;;1.02;;
47009;SDS011;59230;54.164;-3.124;2024-01-15T08:52:41;5.75;;;1.35;;
47009;SDS011;59230;54.164;-3.124;2024-01-15T08:55:08;5.80;;;1.10;;
47009;SDS011;59230;54.164;-3.124;2024-01-15T08:57:33;8.60;;;1.67;;
47009;SDS011;59230;54.164;-3.124;2024-01-15T08:59:59;5.57;;;1.00;;
47009;SDS011;59230;54.164;-3.124;2024-01-15T09:02:27;9.68;;;1.38;;
47009;SDS011;59230;54.164;-3.124;2024-01-15T09:04:53;8.35;;;1.70;;
47009;SDS011;59230;54.164;-3.124;2024-01-15T09:07:20;7.75;;;1.92;;
47009;SDS011;59230;54.164;-3.124;2024-01-15T09:09:46;8.15;;;1.73;;
47009;SDS011;59230;54.164;-3.124;2024-01-15T16:57:14;12.90;;;2.72;;
47009;SDS011;59230;54.164;-3.124;2024-01-15T16:59:44;9.82;;;3.20;;
47009;SDS011;59230;54.164;-3.124;2024-01-15T17:02:11;20.38;;;4.57;;
47009;SDS011;59230;54.164;-3.124;2024-01-15T17:04:36;11.60;;;3.70;;
47009;SDS011;59230;54.164;-3.124;2024-01-15T17:07:05;9.18;;;3.83;;
47009;SDS011;59230;54.164;-3.124;2024-01-15T17:09:34;11.77;;;3.65;;
47009;SDS011;59230;54.164;-3.124;2024-01-15T17:12:04;11.68;;;3.50;;
47009;SDS011;59230;54.164;-3.124;2024-01-15T17:14:34;13.70;;;3.80;;
47009;SDS011;59230;54.164;-3.124;2024-01-15T17:17:00;17.42;;;6.88;;
47009;SDS011;59230;54.164;-3.124;2024-01-15T17:19:27;19.08;;;6.40;;
47009;SDS011;59230;54.164;-3.124;2024-01-15T17:21:54;20.77;;;5.55;;
47009;SDS011;59230;54.164;-3.124;2024-01-15T17:24:22;28.67;;;10.63;;
47009;SDS011;59230;54.164;-3.124;2024-01-15T17:26:48;20.15;;;11.13;;
47009;SDS011;59230;54.164;-3.124;2024-01-15T18:35:50;24.25;;;9.93;;
47009;SDS011;59230;54.164;-3.124;2024-01-15T18:38:17;26.15;;;10.10;;
47009;SDS011;59230;54.164;-3.124;2024-01-15T18:40:42;21.67;;;8.45;;
47009;SDS011;59230;54.164;-3.124;2024-01-15T18:43:08;27.52;;;7.80;;
47009;SDS011;59230;54.164;-3.124;2024-01-15T18:45:35;19.48;;;8.07;;
47009;SDS011;59230;54.164;-3.124;2024-01-15T18:48:01;22.20;;;7.45;;
47009;SDS011;59230;54.164;-3.124;2024-01-15T18:50:27;20.58;;;5.78;;
47009;SDS011;59230;54.164;-3.124;2024-01-15T18:52:55;13.38;;;4.28;;
47009;SDS011;59230;54.164;-3.124;2024-01-15T18:55:22;15.18;;;5.35;;
47009;SDS011;59230;54.164;-3.124;2024-01-15T18:57:50;34.17;;;13.32;;
47009;SDS011;59230;54.164;-3.124;2024-01-15T19:00:19;95.82;;;35.65;;
47009;SDS011;59230;54.164;-3.124;2024-01-15T19:02:49;547.47;;;229.20;;
47009;SDS011;59230;54.164;-3.124;2024-01-15T19:05:27;651.70;;;286.65;;
47009;SDS011;59230;54.164;-3.124;2024-01-15T19:07:52;528.63;;;216.02;;
47009;SDS011;59230;54.164;-3.124;2024-01-15T19:10:20;438.23;;;166.90;;
47009;SDS011;59230;54.164;-3.124;2024-01-15T19:12:48;167.18;;;62.17;;
47009;SDS011;59230;54.164;-3.124;2024-01-15T19:15:13;68.10;;;31.35;;
47009;SDS011;59230;54.164;-3.124;2024-01-15T19:17:42;47.72;;;29.75;;
47009;SDS011;59230;54.164;-3.124;2024-01-15T19:20:11;35.20;;;23.63;;
47009;SDS011;59230;54.164;-3.124;2024-01-15T19:22:37;24.33;;;18.83;;
47009;SDS011;59230;54.164;-3.124;2024-01-15T19:25:02;22.00;;;15.38;;
47009;SDS011;59230;54.164;-3.124;2024-01-15T19:27:30;18.35;;;11.32;;
47009;SDS011;59230;54.164;-3.124;2024-01-15T19:29:55;17.38;;;5.65;;
47009;SDS011;59230;54.164;-3.124;2024-01-15T19:32:22;9.55;;;5.20;;
47009;SDS011;59230;54.164;-3.124;2024-01-15T19:34:47;9.40;;;4.03;;
47009;SDS011;59230;54.164;-3.124;2024-01-15T19:37:14;10.05;;;4.35;;
47009;SDS011;59230;54.164;-3.124;2024-01-15T19:39:40;14.10;;;4.18;;
47009;SDS011;59230;54.164;-3.124;2024-01-15T19:42:07;14.98;;;4.05;;
47009;SDS011;59230;54.164;-3.124;2024-01-15T19:44:33;11.77;;;3.83;;
47009;SDS011;59230;54.164;-3.124;2024-01-15T19:47:00;15.35;;;4.30;;
47009;SDS011;59230;54.164;-3.124;2024-01-15T19:49:26;11.07;;;3.60;;
47009;SDS011;59230;54.164;-3.124;2024-01-15T19:51:51;13.88;;;5.07;;
47009;SDS011;59230;54.164;-3.124;2024-01-15T19:54:17;12.18;;;5.00;;
47009;SDS011;59230;54.164;-3.124;2024-01-15T19:56:45;9.95;;;4.43;;
47009;SDS011;59230;54.164;-3.124;2024-01-15T19:59:10;10.95;;;4.28;;
47009;SDS011;59230;54.164;-3.124;2024-01-15T20:01:36;39.42;;;11.82;;
47009;SDS011;59230;54.164;-3.124;2024-01-15T20:04:02;20.25;;;7.47;;
47009;SDS011;59230;54.164;-3.124;2024-01-15T20:06:29;15.27;;;5.65;;
47009;SDS011;59230;54.164;-3.124;2024-01-15T20:08:56;15.57;;;5.38;;
47009;SDS011;59230;54.164;-3.124;2024-01-15T20:11:22;5.45;;;1.92;;
47009;SDS011;59230;54.164;-3.124;2024-01-15T20:13:47;5.50;;;1.10;;
47009;SDS011;59230;54.164;-3.124;2024-01-15T20:16:13;5.55;;;1.10;;
47009;SDS011;59230;54.164;-3.124;2024-01-15T20:18:42;5.68;;;1.40;;
47009;SDS011;59230;54.164;-3.124;2024-01-15T20:21:08;10.25;;;1.85;;
47009;SDS011;59230;54.164;-3.124;2024-01-15T20:23:34;8.63;;;2.25;;
47009;SDS011;59230;54.164;-3.124;2024-01-15T20:26:03;8.10;;;1.50;;
47009;SDS011;59230;54.164;-3.124;2024-01-15T20:28:31;6.90;;;1.60;;
47009;SDS011;59230;54.164;-3.124;2024-01-15T20:30:59;5.00;;;1.73;;
47009;SDS011;59230;54.164;-3.124;2024-01-15T20:33:25;5.30;;;1.55;;
47009;SDS011;59230;54.164;-3.124;2024-01-15T20:35:53;7.10;;;1.35;;
47009;SDS011;59230;54.164;-3.124;2024-01-15T20:38:21;8.00;;;1.67;;
47009;SDS011;59230;54.164;-3.124;2024-01-15T20:40:48;5.78;;;1.80;;
47009;SDS011;59230;54.164;-3.124;2024-01-15T20:43:13;8.73;;;2.35;;
47009;SDS011;59230;54.164;-3.124;2024-01-15T20:45:39;8.73;;;1.80;;
47009;SDS011;59230;54.164;-3.124;2024-01-15T20:48:05;10.63;;;1.63;;
47009;SDS011;59230;54.164;-3.124;2024-01-15T20:50:31;5.95;;;1.50;;
47009;SDS011;59230;54.164;-3.124;2024-01-15T20:52:57;3.35;;;1.20;;
47009;SDS011;59230;54.164;-3.124;2024-01-15T20:55:24;6.55;;;1.50;;
47009;SDS011;59230;54.164;-3.124;2024-01-15T20:57:49;7.75;;;1.63;;
47009;SDS011;59230;54.164;-3.124;2024-01-15T21:00:15;6.60;;;1.85;;
47009;SDS011;59230;54.164;-3.124;2024-01-15T21:02:42;9.90;;;3.85;;
47009;SDS011;59230;54.164;-3.124;2024-01-15T21:05:07;8.15;;;3.83;;
47009;SDS011;59230;54.164;-3.124;2024-01-15T21:07:33;10.70;;;3.03;;
47009;SDS011;59230;54.164;-3.124;2024-01-15T21:10:02;8.98;;;2.70;;
47009;SDS011;59230;54.164;-3.124;2024-01-15T21:12:33;9.13;;;2.58;;
47009;SDS011;59230;54.164;-3.124;2024-01-15T21:15:00;6.78;;;2.10;;
47009;SDS011;59230;54.164;-3.124;2024-01-15T21:17:27;6.43;;;2.15;;
47009;SDS011;59230;54.164;-3.124;2024-01-15T21:20:01;13.57;;;2.25;;
47009;SDS011;59230;54.164;-3.124;2024-01-15T21:22:37;7.70;;;1.83;;
47009;SDS011;59230;54.164;-3.124;2024-01-15T21:25:12;5.53;;;1.98;;
47009;SDS011;59230;54.164;-3.124;2024-01-15T21:27:40;3.75;;;1.60;;
47009;SDS011;59230;54.164;-3.124;2024-01-15T21:30:05;7.43;;;1.80;;
47009;SDS011;59230;54.164;-3.124;2024-01-15T21:32:33;15.48;;;3.45;;
47009;SDS011;59230;54.164;-3.124;2024-01-15T21:35:04;11.18;;;2.92;;
47009;SDS011;59230;54.164;-3.124;2024-01-15T21:37:37;7.15;;;3.00;;
47009;SDS011;59230;54.164;-3.124;2024-01-15T21:40:09;16.90;;;2.50;;
47009;SDS011;59230;54.164;-3.124;2024-01-15T21:42:38;11.52;;;3.83;;
47009;SDS011;59230;54.164;-3.124;2024-01-15T21:45:07;12.65;;;3.60;;
47009;SDS011;59230;54.164;-3.124;2024-01-15T21:47:43;12.70;;;3.25;;
47009;SDS011;59230;54.164;-3.124;2024-01-15T21:50:11;14.23;;;4.97;;
47009;SDS011;59230;54.164;-3.124;2024-01-15T21:52:38;19.52;;;5.18;;
47009;SDS011;59230;54.164;-3.124;2024-01-15T21:55:05;18.38;;;5.10;;
47009;SDS011;59230;54.164;-3.124;2024-01-15T21:57:38;13.88;;;3.80;;
47009;SDS011;59230;54.164;-3.124;2024-01-15T22:00:09;10.02;;;3.88;;
47009;SDS011;59230;54.164;-3.124;2024-01-15T22:02:38;12.95;;;4.28;;
47009;SDS011;59230;54.164;-3.124;2024-01-15T22:05:08;14.30;;;2.67;;
47009;SDS011;59230;54.164;-3.124;2024-01-15T22:07:40;17.73;;;3.80;;
47009;SDS011;59230;54.164;-3.124;2024-01-15T22:10:11;13.65;;;3.60;;
47009;SDS011;59230;54.164;-3.124;2024-01-15T22:12:37;11.93;;;4.00;;
47009;SDS011;59230;54.164;-3.124;2024-01-15T22:15:02;160.15;;;48.17;;
47009;SDS011;59230;54.164;-3.124;2024-01-15T22:17:30;134.85;;;44.53;;
47009;SDS011;59230;54.164;-3.124;2024-01-15T22:19:58;313.63;;;99.45;;
47009;SDS011;59230;54.164;-3.124;2024-01-15T22:22:25;187.80;;;57.78;;
47009;SDS011;59230;54.164;-3.124;2024-01-15T22:24:51;339.33;;;113.18;;
47009;SDS011;59230;54.164;-3.124;2024-01-15T22:27:17;391.55;;;137.18;;
47009;SDS011;59230;54.164;-3.124;2024-01-15T22:29:43;264.00;;;86.18;;
47009;SDS011;59230;54.164;-3.124;2024-01-15T22:32:09;107.78;;;35.55;;
47009;SDS011;59230;54.164;-3.124;2024-01-15T22:34:35;71.43;;;23.60;;
47009;SDS011;59230;54.164;-3.124;2024-01-15T22:37:01;45.60;;;17.30;;
47009;SDS011;59230;54.164;-3.124;2024-01-15T22:39:29;31.98;;;10.70;;
47009;SDS011;59230;54.164;-3.124;2024-01-15T22:41:56;24.13;;;8.02;;
47009;SDS011;59230;54.164;-3.124;2024-01-15T22:44:22;26.48;;;9.98;;
47009;SDS011;59230;54.164;-3.124;2024-01-15T22:46:48;42.90;;;15.23;;
47009;SDS011;59230;54.164;-3.124;2024-01-15T22:49:15;34.45;;;13.50;;
47009;SDS011;59230;54.164;-3.124;2024-01-15T22:51:42;39.00;;;11.50;;
47009;SDS011;59230;54.164;-3.124;2024-01-15T22:54:09;27.88;;;10.32;;
47009;SDS011;59230;54.164;-3.124;2024-01-15T22:56:36;36.75;;;12.20;;
47009;SDS011;59230;54.164;-3.124;2024-01-15T22:59:02;36.92;;;13.05;;
47009;SDS011;59230;54.164;-3.124;2024-01-15T23:01:29;37.33;;;14.98;;
47009;SDS011;59230;54.164;-3.124;2024-01-15T23:03:54;46.95;;;18.23;;
47009;SDS011;59230;54.164;-3.124;2024-01-15T23:06:20;37.38;;;16.15;;
47009;SDS011;59230;54.164;-3.124;2024-01-15T23:08:48;112.13;;;39.97;;
47009;SDS011;59230;54.164;-3.124;2024-01-15T23:11:14;128.55;;;48.28;;
47009;SDS011;59230;54.164;-3.124;2024-01-15T23:13:40;128.40;;;46.72;;
47009;SDS011;59230;54.164;-3.124;2024-01-15T23:16:07;101.03;;;33.95;;
47009;SDS011;59230;54.164;-3.124;2024-01-15T23:18:42;68.38;;;23.95;;
47009;SDS011;59230;54.164;-3.124;2024-01-15T23:21:10;62.17;;;21.13;;